Latest Weather Observations for Ernabella/Pukatja

IDD60801

Issued at 8:11 am CST Tuesday 22 January 2019 (issued every 10 minutes, with the page automatically refreshed every 10 minutes)

About weather observations | Map of weather stations | Latest weather observations for NT | Other Formats
Station Details ID: 016097 Name: PUKATJA Lat: -26.26 Lon: 132.18 Height: 703.2 m
Data from the previous 72 hours. | See also: Recent months at Ernabella/Pukatja
Date/Time
CST
Temp
°C
App
Temp
°C
Dew
Point
°C
Rel
Hum
%
Delta-T
°C
Wind Press
QNH
hPa
Press
MSL
hPa
Rain since
9am
mm
Dir  Spd
km/h
Gust
km/h
Spd
kts
Gust
kts
22/08:00am 32.2 30.0 7.8 22 13.9 ENE 9 11 5 6 1013.6 1008.3 0.0
22/07:30am 29.2 29.2 9.9 30 11.2 CALM 0 0 0 0 1013.5 1008.2 0.0
22/07:00am 25.5 26.9 14.3 50 6.9 CALM 0 0 0 0 1013.2 1007.8 0.0
22/06:30am 23.7 24.6 13.0 51 6.4 CALM 0 0 0 0 1013.1 1007.7 0.0
22/06:00am 24.1 24.5 11.4 45 7.4 CALM 0 0 0 0 1013.0 1007.6 0.0
22/05:30am 24.5 24.7 10.4 41 8.1 CALM 0 0 0 0 1012.9 1007.5 0.0
22/05:00am 24.6 23.9 11.5 44 7.6 ENE 6 7 3 4 1012.9 1007.5 0.0
22/04:30am 26.4 26.1 10.1 36 9.4 E 2 7 1 4 1012.9 1007.5 0.0
22/04:00am 27.9 28.0 10.1 33 10.3 CALM 0 0 0 0 1012.8 1007.4 0.0
22/03:30am 29.0 28.3 8.7 28 11.5 NW 2 7 1 4 1012.8 1007.4 0.0
22/03:00am 31.0 28.6 8.7 25 12.8 SE 11 17 6 9 1012.8 1007.4 0.0
22/02:30am 29.6 28.7 9.2 28 11.7 SE 4 9 2 5 1012.9 1007.5 0.0
22/02:00am 29.7 29.6 10.8 31 11.1 E 2 7 1 4 1013.1 1007.7 0.0
22/01:30am 32.0 29.5 8.3 23 13.6 SSE 11 13 6 7 1013.0 1007.6 0.0
22/01:00am 31.5 28.7 8.5 24 13.2 SSE 13 15 7 8 1013.1 1007.7 0.0
22/12:30am 32.8 30.3 8.3 22 14.1 SSE 11 13 6 7 1013.4 1008.1 0.0
22/12:00am 33.4 30.5 8.1 21 14.5 SSE 13 17 7 9 1013.7 1008.4 0.0
 
Date/Time
CST
Temp
°C
App
Temp
°C
Dew
Point
°C
Rel
Hum
%
Delta-T
°C
Wind Press
QNH
hPa
Press
MSL
hPa
Rain since
9am
mm
Dir  Spd
km/h
Gust
km/h
Spd
kts
Gust
kts
21/11:30pm 33.8 30.0 7.7 20 14.9 SSE 17 22 9 12 1013.6 1008.3 0.0
21/11:00pm 33.4 30.8 9.4 23 14.1 W 13 24 7 13 1013.3 1007.9 0.0
21/10:30pm 32.8 31.4 10.8 26 13.1 SW 9 26 5 14 1013.4 1008.1 0.0
21/10:00pm 32.7 31.6 10.7 26 13.1 WNW 7 11 4 6 1013.5 1008.2 0.0
21/09:30pm 34.4 31.7 7.5 19 15.4 SE 11 17 6 9 1013.1 1007.7 0.0
21/09:00pm 34.5 32.4 8.3 20 15.2 N 9 24 5 13 1013.0 1007.6 0.0
21/08:30pm 34.6 31.6 7.6 19 15.5 SE 13 24 7 13 1012.4 1007.0 0.0
21/08:00pm 34.9 31.6 6.2 17 16.1 SSE 13 20 7 11 1011.8 1006.4 0.0
21/07:30pm 35.4 32.5 6.6 17 16.3 SSE 11 17 6 9 1011.5 1006.1 0.0
21/07:00pm 36.1 31.5 6.3 16 16.9 S 20 28 11 15 1011.1 1005.7 0.0
21/06:30pm 35.7 28.5 7.7 18 16.2 SSE 35 50 19 27 1011.3 1005.9 0.0
21/06:16pm 36.8 31.0 7.8 17 16.8 S 28 43 15 23 1011.1 1005.7 0.0
21/06:00pm 40.2 36.1 4.1 11 20.1 E 15 24 8 13 1010.9 1005.5 0.0
21/05:30pm 39.0 34.7 3.2 11 19.6 E 15 24 8 13 1010.9 1005.5 0.0
21/05:00pm 39.2 34.8 4.6 12 19.4 E 17 24 9 13 1010.9 1005.5 0.0
21/04:30pm 39.8 34.0 2.5 10 20.3 E 22 35 12 19 1011.1 1005.7 0.0
21/04:00pm 38.8 33.5 3.1 11 19.5 ENE 20 33 11 18 1011.3 1005.9 0.0
21/03:30pm 39.7 36.0 6.1 13 19.3 NNE 15 22 8 12 1011.6 1006.2 0.0
21/03:00pm 39.4 35.6 5.9 13 19.1 ENE 15 26 8 14 1011.9 1006.5 0.0
21/02:30pm 38.8 34.8 6.5 14 18.6 E 17 28 9 15 1012.6 1007.2 0.0
21/02:00pm 37.5 34.4 7.4 16 17.4 ENE 13 19 7 10 1013.1 1007.7 0.0
21/01:30pm 36.1 32.2 7.2 17 16.6 E 17 24 9 13 1013.6 1008.3 0.0
21/01:00pm 35.8 31.9 7.0 17 16.4 ENE 17 26 9 14 1014.0 1008.6 0.0
21/12:30pm 35.3 31.5 7.4 18 16.0 ENE 17 26 9 14 1014.3 1008.9 0.0
21/12:00pm 34.5 29.6 6.7 18 15.7 ENE 22 30 12 16 1014.6 1009.2 0.0
21/11:30am 34.3 29.5 7.4 19 15.3 ENE 22 35 12 19 1014.8 1009.5 0.0
21/11:00am 33.7 27.7 6.9 19 15.1 ENE 28 35 15 19 1014.9 1009.6 0.0
21/10:30am 33.0 26.6 7.1 20 14.6 ENE 30 37 16 20 1014.9 1009.6 0.0
21/10:00am 34.2 28.6 7.3 19 15.3 ENE 26 37 14 20 1015.0 1009.7 0.0
21/09:30am 31.8 25.5 7.5 22 13.7 ENE 30 43 16 23 1015.2 1009.9 0.0
21/09:00am 30.5 25.9 8.3 25 12.6 E 22 32 12 17 1015.4 1010.0 0.0
21/08:30am 29.6 24.2 8.1 26 12.1 E 26 33 14 18 1015.4 1010.0 0.0
21/08:00am 29.1 24.4 7.7 26 12.0 E 22 33 12 18 1015.5 1010.1 0.0
21/07:30am 28.8 24.5 7.9 27 11.7 ESE 20 32 11 17 1015.4 1010.0 0.0
21/07:00am 28.7 23.9 7.3 26 11.9 ESE 22 30 12 16 1015.2 1009.9 0.0
21/06:30am 28.8 23.3 7.4 26 11.9 ESE 26 37 14 20 1015.0 1009.7 0.0
21/06:00am 28.8 23.6 7.4 26 11.9 ESE 24 39 13 21 1014.8 1009.5 0.0
21/05:30am 28.8 24.5 7.9 27 11.7 E 20 28 11 15 1014.7 1009.4 0.0
21/05:00am 29.2 24.6 8.3 27 11.8 E 22 33 12 18 1014.8 1009.5 0.0
21/04:30am 28.7 25.1 8.4 28 11.5 ESE 17 24 9 13 1015.0 1009.7 0.0
21/04:00am 29.1 25.6 8.7 28 11.6 ESE 17 26 9 14 1014.8 1009.5 0.0
21/03:30am 28.3 26.4 9.1 30 10.9 NE 9 15 5 8 1014.6 1009.2 0.0
21/03:00am 29.0 25.2 9.2 29 11.3 ESE 19 26 10 14 1014.8 1009.5 0.0
21/02:30am 29.0 23.9 9.2 29 11.3 SE 26 35 14 19 1015.1 1009.8 0.0
21/02:00am 28.8 24.5 9.5 30 11.1 SE 22 32 12 17 1015.5 1010.1 0.0
21/01:30am 29.0 27.1 9.2 29 11.3 SE 9 15 5 8 1016.5 1011.2 0.0
21/01:00am 29.5 25.7 9.1 28 11.7 SE 19 30 10 16 1016.0 1010.7 0.0
21/12:30am 29.7 26.0 9.3 28 11.7 SSE 19 28 10 15 1016.3 1011.0 0.0
21/12:00am 30.6 25.2 9.5 27 12.2 SSE 28 39 15 21 1016.4 1011.1 0.0
 
Date/Time
CST
Temp
°C
App
Temp
°C
Dew
Point
°C
Rel
Hum
%
Delta-T
°C
Wind Press
QNH
hPa
Press
MSL
hPa
Rain since
9am
mm
Dir  Spd
km/h
Gust
km/h
Spd
kts
Gust
kts
20/11:38pm 29.9 23.8 9.9 29 11.6 SSE 32 56 17 30 1016.4 1011.1 0.0
20/11:30pm 29.5 22.7 10.6 31 11.1 SSE 37 54 20 29 1016.4 1011.1 0.0
20/11:19pm 30.5 25.1 9.4 27 12.2 SE 28 46 15 25 1017.4 1012.1 0.0
20/11:00pm 30.4 26.6 9.8 28 12.0 SSE 20 32 11 17 1017.5 1012.2 0.0
20/10:30pm 30.8 26.2 9.6 27 12.3 S 24 35 13 19 1017.0 1011.6 0.0
20/10:00pm 31.2 26.3 10.0 27 12.4 S 26 37 14 20 1016.7 1011.4 0.0
20/09:30pm 31.3 25.7 10.1 27 12.4 S 30 43 16 23 1016.6 1011.3 0.0
20/09:00pm 31.8 25.7 10.5 27 12.6 S 33 44 18 24 1016.2 1010.9 0.0
20/08:30pm 32.3 26.4 10.4 26 13.0 S 32 41 17 22 1015.9 1010.5 0.0
20/08:00pm 32.9 26.8 10.3 25 13.4 S 33 48 18 26 1015.6 1010.2 0.0
20/07:30pm 33.2 27.1 9.9 24 13.7 S 32 44 17 24 1015.0 1009.7 0.0
20/07:00pm 33.5 27.1 9.5 23 14.1 S 33 44 18 24 1014.6 1009.2 0.0
20/06:57pm 33.5 27.1 9.5 23 14.1 S 33 52 18 28 1014.6 1009.2 0.0
20/06:30pm 34.1 27.0 9.4 22 14.5 S 37 50 20 27 1014.2 1008.8 0.0
20/06:00pm 34.7 27.9 9.2 21 15.0 S 35 50 19 27 1013.9 1008.5 0.0
20/05:30pm 36.1 29.2 8.8 19 16.0 S 35 52 19 28 1013.7 1008.4 0.0
20/05:00pm 37.5 32.7 7.4 16 17.4 ESE 22 37 12 20 1013.9 1008.5 0.0
20/04:30pm 38.1 33.2 7.0 15 17.9 SSE 22 33 12 18 1014.2 1008.8 0.0
20/04:00pm 38.2 33.7 7.0 15 18.0 SSE 20 32 11 17 1014.5 1009.1 0.0
20/03:30pm 38.7 34.9 7.4 15 18.2 E 17 33 9 18 1015.0 1009.7 0.0
20/03:00pm 37.8 34.4 7.7 16 17.5 E 15 32 8 17 1015.4 1010.0 0.0
20/02:30pm 37.1 34.0 7.1 16 17.2 E 13 30 7 16 1015.7 1010.3 0.0
20/02:00pm 36.7 32.9 7.7 17 16.8 ESE 17 28 9 15 1016.2 1010.9 0.0
20/01:30pm 37.1 33.8 8.0 17 16.9 ESE 15 26 8 14 1016.6 1011.3 0.0
20/01:00pm 35.6 31.8 7.6 18 16.1 ESE 17 28 9 15 1017.1 1011.7 0.0
20/12:30pm 35.7 31.6 7.7 18 16.1 SE 19 30 10 16 1017.4 1012.1 0.0
20/12:00pm 34.8 31.1 7.8 19 15.5 ESE 17 24 9 13 1017.9 1012.6 0.0
20/11:30am 34.4 30.8 8.2 20 15.1 ESE 17 30 9 16 1018.0 1012.7 0.0
20/11:00am 33.0 29.6 7.8 21 14.4 SE 15 24 8 13 1018.2 1012.9 0.0
20/10:30am 32.3 28.0 7.2 21 14.1 ESE 19 28 10 15 1018.3 1013.0 0.0
20/10:00am 31.3 26.7 6.4 21 13.8 SE 20 33 11 18 1018.5 1013.1 0.0
20/09:30am 29.8 25.8 6.5 23 12.8 SSE 17 24 9 13 1018.7 1013.4 0.0
20/09:00am 28.8 24.8 6.8 25 12.1 SSE 17 26 9 14 1018.8 1013.5 0.0
20/08:30am 27.6 22.8 5.8 25 11.7 SE 20 28 11 15 1018.7 1013.4 0.0
20/08:00am 27.2 23.3 5.5 25 11.6 SSE 15 20 8 11 1018.5 1013.1 0.0
20/07:30am 26.7 22.5 5.6 26 11.2 SE 17 28 9 15 1018.2 1012.9 0.0
20/07:00am 26.0 22.5 5.6 27 10.8 SSE 13 24 7 13 1017.9 1012.6 0.0
20/06:30am 25.7 22.8 6.3 29 10.4 SE 11 24 6 13 1017.7 1012.4 0.0
20/06:00am 25.5 22.7 7.1 31 10.0 SSE 11 19 6 10 1017.6 1012.3 0.0
20/05:30am 25.8 22.8 7.9 32 9.9 SSE 13 20 7 11 1017.4 1012.1 0.0
20/05:00am 26.0 23.6 8.5 33 9.8 SE 11 20 6 11 1017.2 1011.8 0.0
20/04:30am 26.3 23.2 8.8 33 9.8 SE 15 24 8 13 1017.0 1011.6 0.0
20/04:00am 26.7 23.2 8.6 32 10.2 SE 17 28 9 15 1017.1 1011.7 0.0
20/03:30am 27.1 22.8 9.5 33 10.0 SE 22 33 12 18 1016.8 1011.5 0.0
20/03:00am 27.4 23.2 9.7 33 10.1 SE 22 35 12 19 1017.2 1011.8 0.0
20/02:30am 27.8 22.9 10.1 33 10.2 SSE 26 37 14 20 1017.4 1012.1 0.0
20/02:00am 28.1 23.8 10.8 34 10.1 SSE 24 39 13 21 1017.3 1011.9 0.0
20/01:39am 28.3 22.9 10.9 34 10.2 SE 30 48 16 26 1017.4 1012.1 0.0
20/01:30am 28.6 22.8 10.8 33 10.4 SSE 32 48 17 26 1017.5 1012.2 0.0
20/01:24am 28.5 23.5 11.1 34 10.3 SSE 28 46 15 25 1017.5 1012.2 0.0
20/01:00am 28.6 24.2 11.6 34 10.1 SSE 26 41 14 22 1017.6 1012.3 0.0
20/12:30am 29.3 25.5 12.3 35 10.2 SSE 24 37 13 20 1017.8 1012.5 0.0
20/12:00am 29.7 25.1 12.2 34 10.5 SSE 28 41 15 22 1017.6 1012.3 0.0
 
Date/Time
CST
Temp
°C
App
Temp
°C
Dew
Point
°C
Rel
Hum
%
Delta-T
°C
Wind Press
QNH
hPa
Press
MSL
hPa
Rain since
9am
mm
Dir  Spd
km/h
Gust
km/h
Spd
kts
Gust
kts
19/11:30pm 30.3 24.3 12.2 33 10.9 SSE 35 54 19 29 1017.6 1012.3 0.0
19/11:04pm 30.7 26.2 12.6 33 11.0 SSE 28 46 15 25 1017.6 1012.3 0.0
19/11:00pm 30.7 27.0 12.6 33 11.0 SSE 24 37 13 20 1017.5 1012.2 0.0
19/10:43pm 31.1 25.8 12.5 32 11.3 SSE 32 50 17 27 1017.5 1012.2 0.0
19/10:30pm 31.5 26.1 12.3 31 11.7 SSE 32 43 17 23 1017.4 1012.1 0.0
19/10:00pm 32.2 27.3 12.4 30 12.1 SE 30 52 16 28 1017.0 1011.6 0.0
19/09:59pm 32.2 27.3 12.4 30 12.1 SE 30 52 16 28 1016.8 1011.5 0.0
19/09:30pm 33.0 29.1 12.1 28 12.7 SE 24 33 13 18 1016.3 1011.0 0.0
19/09:00pm 33.0 30.0 12.1 28 12.7 SE 19 30 10 16 1016.1 1010.8 0.0
19/08:30pm 33.4 29.4 11.9 27 13.1 SE 24 35 13 19 1015.7 1010.3 0.0
19/08:00pm 33.9 30.6 11.7 26 13.5 SE 20 33 11 18 1015.5 1010.1 0.0
19/07:30pm 34.2 30.1 11.4 25 13.8 ESE 24 33 13 18 1015.1 1009.8 0.0
19/07:00pm 34.9 31.1 11.3 24 14.3 SE 22 30 12 16 1014.8 1009.5 0.0
19/06:30pm 35.1 31.0 11.5 24 14.4 SE 24 35 13 19 1014.6 1009.2 0.0
19/06:00pm 35.9 33.0 12.2 24 14.6 SE 19 28 10 15 1014.5 1009.1 0.0
19/05:30pm 36.0 32.9 12.3 24 14.6 SE 20 32 11 17 1014.6 1009.2 0.0
19/05:00pm 36.4 34.1 11.9 23 15.1 SE 15 28 8 15 1014.7 1009.4 0.0
19/04:30pm 35.4 32.1 11.7 23 14.5 ESE 20 30 11 16 1015.1 1009.8 0.0
19/04:00pm 35.2 32.3 12.2 25 14.1 SE 19 28 10 15 1015.5 1010.1 0.0
19/03:30pm 35.5 33.2 13.1 26 14.0 ESE 17 30 9 16 1015.8 1010.4 0.0
19/03:00pm 34.7 31.8 12.4 26 13.7 E 19 30 10 16 1016.1 1010.8 0.0
19/02:30pm 34.1 30.3 12.4 26 13.3 ENE 24 35 13 19 1016.4 1011.1 0.0
19/02:00pm 34.4 31.6 12.7 27 13.4 E 19 32 10 17 1016.6 1011.3 0.0
19/01:30pm 33.9 31.7 13.4 29 12.8 ESE 17 28 9 15 1016.7 1011.4 0.0
19/01:00pm 32.8 29.7 13.4 30 12.0 ESE 22 32 12 17 1017.2 1011.8 0.0
19/12:30pm 31.6 28.5 13.4 33 11.2 ESE 22 39 12 21 1017.4 1012.1 0.0
19/12:00pm 31.3 28.4 14.0 35 10.8 ESE 22 33 12 18 1017.6 1012.3 0.0
19/11:30am 30.1 27.1 13.8 37 10.1 SE 22 39 12 21 1017.7 1012.4 0.0
19/11:00am 29.4 26.5 14.0 39 9.5 SE 22 35 12 19 1017.9 1012.6 0.0
19/10:30am 28.6 26.2 14.4 41 8.8 SE 20 30 11 16 1018.2 1012.9 0.0
19/10:00am 27.8 25.1 15.5 47 7.7 SE 24 32 13 17 1018.0 1012.7 0.0
19/09:30am 27.4 25.7 15.7 48 7.4 SSE 19 28 10 15 1018.1 1012.8 0.0
19/09:00am 26.5 24.8 15.8 51 6.7 SSE 19 30 10 16 1018.1 1012.8 0.0
19/08:30am 25.6 22.8 15.3 53 6.4 SSE 24 35 13 19 1018.1 1012.8 0.0
19/08:00am 25.5 23.8 15.8 55 6.1 SSE 19 33 10 18 1018.1 1012.8 14.6
19/07:30am 24.7 22.1 15.9 58 5.5 S 24 32 13 17 1017.8 1012.5 14.6

Other Formats:

Comma delimited format used in spreadsheet applications
http://www.bom.gov.au/fwo/IDD60801/IDD60801.94474.axf

JavaScript Object Notation format (JSON) in row-major order
http://www.bom.gov.au/fwo/IDD60801/IDD60801.94474.json